sensor_id;sensor_type;location;lat;lon;timestamp;P1;durP1;ratioP1;P2;durP2;ratioP2
5147;SDS011;2592;48.140;7.614;2024-03-06T00:01:58;5.87;;;3.87;;
5147;SDS011;2592;48.140;7.614;2024-03-06T00:04:24;5.10;;;3.67;;
5147;SDS011;2592;48.140;7.614;2024-03-06T00:06:51;4.73;;;3.93;;
5147;SDS011;2592;48.140;7.614;2024-03-06T00:09:19;7.97;;;4.50;;
5147;SDS011;2592;48.140;7.614;2024-03-06T00:11:45;7.23;;;4.50;;
5147;SDS011;2592;48.140;7.614;2024-03-06T00:14:11;6.00;;;4.20;;
5147;SDS011;2592;48.140;7.614;2024-03-06T00:16:38;4.83;;;3.50;;
5147;SDS011;2592;48.140;7.614;2024-03-06T00:19:06;5.97;;;4.20;;
5147;SDS011;2592;48.140;7.614;2024-03-06T00:21:32;4.87;;;4.00;;
5147;SDS011;2592;48.140;7.614;2024-03-06T00:23:59;7.23;;;4.40;;
5147;SDS011;2592;48.140;7.614;2024-03-06T00:26:25;7.90;;;4.33;;
5147;SDS011;2592;48.140;7.614;2024-03-06T00:28:51;8.97;;;4.33;;
5147;SDS011;2592;48.140;7.614;2024-03-06T00:31:18;8.00;;;4.53;;
5147;SDS011;2592;48.140;7.614;2024-03-06T00:33:44;5.17;;;4.20;;
5147;SDS011;2592;48.140;7.614;2024-03-06T00:36:12;4.50;;;3.67;;
5147;SDS011;2592;48.140;7.614;2024-03-06T00:38:38;5.70;;;4.50;;
5147;SDS011;2592;48.140;7.614;2024-03-06T00:41:05;5.50;;;3.60;;
5147;SDS011;2592;48.140;7.614;2024-03-06T00:43:32;5.47;;;3.53;;
5147;SDS011;2592;48.140;7.614;2024-03-06T00:45:58;6.33;;;3.40;;
5147;SDS011;2592;48.140;7.614;2024-03-06T00:48:25;5.00;;;3.53;;
5147;SDS011;2592;48.140;7.614;2024-03-06T00:50:52;7.40;;;3.30;;
5147;SDS011;2592;48.140;7.614;2024-03-06T00:53:19;4.27;;;2.97;;
5147;SDS011;2592;48.140;7.614;2024-03-06T00:55:46;5.10;;;2.90;;
5147;SDS011;2592;48.140;7.614;2024-03-06T00:58:12;7.10;;;2.70;;
5147;SDS011;2592;48.140;7.614;2024-03-06T01:00:39;5.13;;;3.53;;
5147;SDS011;2592;48.140;7.614;2024-03-06T01:03:05;4.50;;;2.60;;
5147;SDS011;2592;48.140;7.614;2024-03-06T01:05:32;3.63;;;2.10;;
5147;SDS011;2592;48.140;7.614;2024-03-06T01:07:58;5.00;;;2.63;;
5147;SDS011;2592;48.140;7.614;2024-03-06T01:10:26;3.63;;;2.60;;
5147;SDS011;2592;48.140;7.614;2024-03-06T01:12:53;9.00;;;3.00;;
5147;SDS011;2592;48.140;7.614;2024-03-06T01:15:19;6.73;;;2.60;;
5147;SDS011;2592;48.140;7.614;2024-03-06T01:17:46;4.63;;;2.40;;
5147;SDS011;2592;48.140;7.614;2024-03-06T01:20:12;3.47;;;2.13;;
5147;SDS011;2592;48.140;7.614;2024-03-06T01:22:38;3.57;;;1.97;;
5147;SDS011;2592;48.140;7.614;2024-03-06T01:25:05;3.70;;;1.93;;
5147;SDS011;2592;48.140;7.614;2024-03-06T01:27:33;4.77;;;2.13;;
5147;SDS011;2592;48.140;7.614;2024-03-06T01:30:00;3.60;;;2.03;;
5147;SDS011;2592;48.140;7.614;2024-03-06T01:32:26;4.23;;;2.37;;
5147;SDS011;2592;48.140;7.614;2024-03-06T01:34:53;4.63;;;2.13;;
5147;SDS011;2592;48.140;7.614;2024-03-06T01:37:19;5.03;;;1.93;;
5147;SDS011;2592;48.140;7.614;2024-03-06T01:39:45;4.13;;;2.30;;
5147;SDS011;2592;48.140;7.614;2024-03-06T01:42:12;5.43;;;2.00;;
5147;SDS011;2592;48.140;7.614;2024-03-06T01:44:40;1.93;;;1.73;;
5147;SDS011;2592;48.140;7.614;2024-03-06T01:47:07;2.60;;;1.57;;
5147;SDS011;2592;48.140;7.614;2024-03-06T01:49:33;8.60;;;2.37;;
5147;SDS011;2592;48.140;7.614;2024-03-06T01:52:00;5.10;;;1.90;;
5147;SDS011;2592;48.140;7.614;2024-03-06T01:54:27;5.10;;;1.70;;
5147;SDS011;2592;48.140;7.614;2024-03-06T01:56:54;2.83;;;2.00;;
5147;SDS011;2592;48.140;7.614;2024-03-06T01:59:21;4.60;;;2.10;;
5147;SDS011;2592;48.140;7.614;2024-03-06T02:01:52;3.83;;;2.27;;
5147;SDS011;2592;48.140;7.614;2024-03-06T02:04:19;3.30;;;2.30;;
5147;SDS011;2592;48.140;7.614;2024-03-06T02:06:46;3.07;;;2.20;;
5147;SDS011;2592;48.140;7.614;2024-03-06T02:09:13;2.67;;;2.10;;
5147;SDS011;2592;48.140;7.614;2024-03-06T02:11:40;2.97;;;2.40;;
5147;SDS011;2592;48.140;7.614;2024-03-06T02:14:07;5.83;;;2.50;;
5147;SDS011;2592;48.140;7.614;2024-03-06T02:16:35;3.50;;;2.00;;
5147;SDS011;2592;48.140;7.614;2024-03-06T02:19:03;4.97;;;2.10;;
5147;SDS011;2592;48.140;7.614;2024-03-06T02:21:30;3.60;;;2.40;;
5147;SDS011;2592;48.140;7.614;2024-03-06T02:23:57;2.37;;;2.00;;
5147;SDS011;2592;48.140;7.614;2024-03-06T02:26:23;5.83;;;2.40;;
5147;SDS011;2592;48.140;7.614;2024-03-06T02:28:50;2.43;;;1.73;;
5147;SDS011;2592;48.140;7.614;2024-03-06T02:31:17;2.43;;;2.20;;
5147;SDS011;2592;48.140;7.614;2024-03-06T02:33:43;4.83;;;2.43;;
5147;SDS011;2592;48.140;7.614;2024-03-06T02:36:10;3.60;;;2.00;;
5147;SDS011;2592;48.140;7.614;2024-03-06T02:38:38;8.40;;;5.30;;
5147;SDS011;2592;48.140;7.614;2024-03-06T02:41:05;4.50;;;2.80;;
5147;SDS011;2592;48.140;7.614;2024-03-06T02:43:32;3.23;;;2.43;;
5147;SDS011;2592;48.140;7.614;2024-03-06T02:45:58;3.63;;;2.50;;
5147;SDS011;2592;48.140;7.614;2024-03-06T02:48:25;3.13;;;1.80;;
5147;SDS011;2592;48.140;7.614;2024-03-06T02:50:51;3.43;;;2.33;;
5147;SDS011;2592;48.140;7.614;2024-03-06T02:53:17;2.50;;;1.90;;
5147;SDS011;2592;48.140;7.614;2024-03-06T02:55:45;2.60;;;2.30;;
5147;SDS011;2592;48.140;7.614;2024-03-06T02:58:12;2.80;;;2.00;;
5147;SDS011;2592;48.140;7.614;2024-03-06T03:00:39;2.10;;;1.90;;
5147;SDS011;2592;48.140;7.614;2024-03-06T03:03:05;3.07;;;2.23;;
5147;SDS011;2592;48.140;7.614;2024-03-06T03:05:32;6.53;;;2.00;;
5147;SDS011;2592;48.140;7.614;2024-03-06T03:07:59;9.83;;;2.80;;
5147;SDS011;2592;48.140;7.614;2024-03-06T03:10:25;2.60;;;1.77;;
5147;SDS011;2592;48.140;7.614;2024-03-06T03:12:53;5.40;;;1.80;;
5147;SDS011;2592;48.140;7.614;2024-03-06T03:15:20;3.23;;;1.67;;
5147;SDS011;2592;48.140;7.614;2024-03-06T03:17:47;3.87;;;2.10;;
5147;SDS011;2592;48.140;7.614;2024-03-06T03:20:13;5.47;;;2.03;;
5147;SDS011;2592;48.140;7.614;2024-03-06T03:22:42;5.17;;;2.30;;
5147;SDS011;2592;48.140;7.614;2024-03-06T03:25:08;3.93;;;2.43;;
5147;SDS011;2592;48.140;7.614;2024-03-06T03:27:36;6.90;;;3.20;;
5147;SDS011;2592;48.140;7.614;2024-03-06T03:30:05;6.70;;;2.70;;
5147;SDS011;2592;48.140;7.614;2024-03-06T03:32:34;4.67;;;2.50;;
5147;SDS011;2592;48.140;7.614;2024-03-06T03:35:00;3.37;;;1.50;;
5147;SDS011;2592;48.140;7.614;2024-03-06T03:37:27;4.10;;;2.00;;
5147;SDS011;2592;48.140;7.614;2024-03-06T03:39:53;5.93;;;1.83;;
5147;SDS011;2592;48.140;7.614;2024-03-06T03:42:19;3.83;;;2.03;;
5147;SDS011;2592;48.140;7.614;2024-03-06T03:44:46;10.70;;;2.03;;
5147;SDS011;2592;48.140;7.614;2024-03-06T03:47:14;2.60;;;1.97;;
5147;SDS011;2592;48.140;7.614;2024-03-06T03:49:40;2.10;;;1.83;;
5147;SDS011;2592;48.140;7.614;2024-03-06T03:52:07;5.10;;;1.93;;
5147;SDS011;2592;48.140;7.614;2024-03-06T03:54:33;5.90;;;1.87;;
5147;SDS011;2592;48.140;7.614;2024-03-06T03:57:00;3.43;;;1.87;;
5147;SDS011;2592;48.140;7.614;2024-03-06T03:59:26;2.53;;;1.83;;
5147;SDS011;2592;48.140;7.614;2024-03-06T04:01:53;7.20;;;2.20;;
5147;SDS011;2592;48.140;7.614;2024-03-06T04:04:23;3.33;;;2.40;;
5147;SDS011;2592;48.140;7.614;2024-03-06T04:06:50;2.60;;;2.10;;
5147;SDS011;2592;48.140;7.614;2024-03-06T04:09:16;3.10;;;2.10;;
5147;SDS011;2592;48.140;7.614;2024-03-06T04:11:43;6.13;;;2.30;;
5147;SDS011;2592;48.140;7.614;2024-03-06T04:14:09;3.63;;;2.23;;
5147;SDS011;2592;48.140;7.614;2024-03-06T04:16:36;3.57;;;2.57;;
5147;SDS011;2592;48.140;7.614;2024-03-06T04:19:03;4.50;;;2.10;;
5147;SDS011;2592;48.140;7.614;2024-03-06T04:21:31;4.03;;;2.03;;
5147;SDS011;2592;48.140;7.614;2024-03-06T04:23:57;4.27;;;2.20;;
5147;SDS011;2592;48.140;7.614;2024-03-06T04:26:24;5.37;;;3.70;;
5147;SDS011;2592;48.140;7.614;2024-03-06T04:28:50;4.77;;;3.43;;
5147;SDS011;2592;48.140;7.614;2024-03-06T04:31:17;6.37;;;4.47;;
5147;SDS011;2592;48.140;7.614;2024-03-06T04:33:44;5.10;;;3.37;;
5147;SDS011;2592;48.140;7.614;2024-03-06T04:36:10;4.30;;;3.40;;
5147;SDS011;2592;48.140;7.614;2024-03-06T04:38:38;19.77;;;14.73;;
5147;SDS011;2592;48.140;7.614;2024-03-06T04:41:05;11.17;;;8.10;;
5147;SDS011;2592;48.140;7.614;2024-03-06T04:43:31;9.97;;;4.83;;
5147;SDS011;2592;48.140;7.614;2024-03-06T04:45:57;9.83;;;6.00;;
5147;SDS011;2592;48.140;7.614;2024-03-06T04:48:24;7.80;;;4.20;;
5147;SDS011;2592;48.140;7.614;2024-03-06T04:50:50;2.70;;;2.50;;
5147;SDS011;2592;48.140;7.614;2024-03-06T04:53:18;5.93;;;3.13;;
5147;SDS011;2592;48.140;7.614;2024-03-06T04:55:46;5.67;;;3.13;;
5147;SDS011;2592;48.140;7.614;2024-03-06T04:58:13;3.10;;;2.80;;
5147;SDS011;2592;48.140;7.614;2024-03-06T05:00:39;3.60;;;2.90;;
5147;SDS011;2592;48.140;7.614;2024-03-06T05:03:06;4.30;;;3.07;;
5147;SDS011;2592;48.140;7.614;2024-03-06T05:05:32;5.80;;;3.77;;
5147;SDS011;2592;48.140;7.614;2024-03-06T05:07:59;3.50;;;2.90;;
5147;SDS011;2592;48.140;7.614;2024-03-06T05:10:25;3.60;;;2.50;;
5147;SDS011;2592;48.140;7.614;2024-03-06T05:12:53;6.70;;;3.53;;
5147;SDS011;2592;48.140;7.614;2024-03-06T05:15:20;4.07;;;3.67;;
5147;SDS011;2592;48.140;7.614;2024-03-06T05:17:47;6.70;;;4.00;;
5147;SDS011;2592;48.140;7.614;2024-03-06T05:20:13;5.30;;;3.40;;
5147;SDS011;2592;48.140;7.614;2024-03-06T05:22:40;6.00;;;4.50;;
5147;SDS011;2592;48.140;7.614;2024-03-06T05:25:07;5.10;;;3.03;;
5147;SDS011;2592;48.140;7.614;2024-03-06T05:27:33;3.47;;;2.70;;
5147;SDS011;2592;48.140;7.614;2024-03-06T05:30:01;4.17;;;3.20;;
5147;SDS011;2592;48.140;7.614;2024-03-06T05:32:29;2.90;;;2.40;;
5147;SDS011;2592;48.140;7.614;2024-03-06T05:34:55;9.87;;;4.20;;
5147;SDS011;2592;48.140;7.614;2024-03-06T05:37:23;10.03;;;3.00;;
5147;SDS011;2592;48.140;7.614;2024-03-06T05:39:49;3.73;;;2.90;;
5147;SDS011;2592;48.140;7.614;2024-03-06T05:42:15;4.43;;;2.63;;
5147;SDS011;2592;48.140;7.614;2024-03-06T05:44:42;2.63;;;2.30;;
5147;SDS011;2592;48.140;7.614;2024-03-06T05:47:10;7.57;;;2.80;;
5147;SDS011;2592;48.140;7.614;2024-03-06T05:49:36;3.87;;;2.97;;
5147;SDS011;2592;48.140;7.614;2024-03-06T05:52:03;4.33;;;2.90;;
5147;SDS011;2592;48.140;7.614;2024-03-06T05:54:29;4.30;;;3.10;;
5147;SDS011;2592;48.140;7.614;2024-03-06T05:56:58;3.20;;;2.80;;
5147;SDS011;2592;48.140;7.614;2024-03-06T05:59:25;4.97;;;3.30;;
5147;SDS011;2592;48.140;7.614;2024-03-06T06:01:51;5.83;;;4.37;;
5147;SDS011;2592;48.140;7.614;2024-03-06T06:04:19;20.80;;;14.00;;
5147;SDS011;2592;48.140;7.614;2024-03-06T06:06:47;11.07;;;8.90;;
5147;SDS011;2592;48.140;7.614;2024-03-06T06:09:13;8.57;;;6.00;;
5147;SDS011;2592;48.140;7.614;2024-03-06T06:11:41;5.40;;;4.90;;
5147;SDS011;2592;48.140;7.614;2024-03-06T06:14:07;4.00;;;3.57;;
5147;SDS011;2592;48.140;7.614;2024-03-06T06:16:37;5.83;;;4.40;;
5147;SDS011;2592;48.140;7.614;2024-03-06T06:19:03;5.60;;;3.73;;
5147;SDS011;2592;48.140;7.614;2024-03-06T06:21:32;7.83;;;4.07;;
5147;SDS011;2592;48.140;7.614;2024-03-06T06:23:58;6.33;;;3.97;;
5147;SDS011;2592;48.140;7.614;2024-03-06T06:26:24;5.70;;;3.90;;
5147;SDS011;2592;48.140;7.614;2024-03-06T06:28:51;3.83;;;3.50;;
5147;SDS011;2592;48.140;7.614;2024-03-06T06:31:17;4.30;;;3.23;;
5147;SDS011;2592;48.140;7.614;2024-03-06T06:33:44;5.17;;;3.90;;
5147;SDS011;2592;48.140;7.614;2024-03-06T06:36:11;5.17;;;2.60;;
5147;SDS011;2592;48.140;7.614;2024-03-06T06:38:39;7.07;;;3.70;;
5147;SDS011;2592;48.140;7.614;2024-03-06T06:41:05;4.47;;;3.60;;
5147;SDS011;2592;48.140;7.614;2024-03-06T06:43:32;3.53;;;3.17;;
5147;SDS011;2592;48.140;7.614;2024-03-06T06:45:58;14.80;;;11.00;;
5147;SDS011;2592;48.140;7.614;2024-03-06T06:48:24;14.57;;;10.17;;
5147;SDS011;2592;48.140;7.614;2024-03-06T06:50:51;14.60;;;10.27;;
5147;SDS011;2592;48.140;7.614;2024-03-06T06:53:17;15.20;;;11.07;;
5147;SDS011;2592;48.140;7.614;2024-03-06T06:55:46;10.50;;;9.10;;
5147;SDS011;2592;48.140;7.614;2024-03-06T06:58:12;16.13;;;7.10;;
5147;SDS011;2592;48.140;7.614;2024-03-06T07:00:39;14.23;;;9.50;;
5147;SDS011;2592;48.140;7.614;2024-03-06T07:03:07;15.83;;;10.40;;
5147;SDS011;2592;48.140;7.614;2024-03-06T07:05:33;12.77;;;9.70;;
5147;SDS011;2592;48.140;7.614;2024-03-06T07:07:59;11.30;;;7.80;;
5147;SDS011;2592;48.140;7.614;2024-03-06T07:10:26;10.60;;;8.90;;
5147;SDS011;2592;48.140;7.614;2024-03-06T07:12:54;18.10;;;10.90;;
5147;SDS011;2592;48.140;7.614;2024-03-06T07:15:20;17.13;;;11.40;;
5147;SDS011;2592;48.140;7.614;2024-03-06T07:17:47;13.63;;;9.50;;
5147;SDS011;2592;48.140;7.614;2024-03-06T07:20:13;15.17;;;10.10;;
5147;SDS011;2592;48.140;7.614;2024-03-06T07:22:40;16.10;;;10.20;;
5147;SDS011;2592;48.140;7.614;2024-03-06T07:25:06;20.13;;;9.93;;
5147;SDS011;2592;48.140;7.614;2024-03-06T07:27:33;13.40;;;10.27;;
5147;SDS011;2592;48.140;7.614;2024-03-06T07:30:01;15.63;;;10.23;;
5147;SDS011;2592;48.140;7.614;2024-03-06T07:32:27;12.37;;;8.03;;
5147;SDS011;2592;48.140;7.614;2024-03-06T07:34:53;10.50;;;6.33;;
5147;SDS011;2592;48.140;7.614;2024-03-06T07:37:20;9.63;;;7.30;;
5147;SDS011;2592;48.140;7.614;2024-03-06T07:39:46;11.97;;;10.50;;
5147;SDS011;2592;48.140;7.614;2024-03-06T07:42:13;15.63;;;10.87;;
5147;SDS011;2592;48.140;7.614;2024-03-06T07:44:40;12.37;;;10.90;;
5147;SDS011;2592;48.140;7.614;2024-03-06T07:49:34;10.60;;;7.33;;
5147;SDS011;2592;48.140;7.614;2024-03-06T07:52:01;8.63;;;6.17;;
5147;SDS011;2592;48.140;7.614;2024-03-06T07:54:27;9.37;;;6.70;;
5147;SDS011;2592;48.140;7.614;2024-03-06T07:56:54;8.17;;;5.60;;
5147;SDS011;2592;48.140;7.614;2024-03-06T07:59:20;7.50;;;6.30;;
5147;SDS011;2592;48.140;7.614;2024-03-06T08:01:46;21.03;;;12.97;;
5147;SDS011;2592;48.140;7.614;2024-03-06T08:04:13;28.17;;;15.33;;
5147;SDS011;2592;48.140;7.614;2024-03-06T08:06:41;34.23;;;22.17;;
5147;SDS011;2592;48.140;7.614;2024-03-06T08:09:07;29.60;;;18.90;;
5147;SDS011;2592;48.140;7.614;2024-03-06T08:11:34;25.43;;;20.63;;
5147;SDS011;2592;48.140;7.614;2024-03-06T08:14:01;20.77;;;18.57;;
5147;SDS011;2592;48.140;7.614;2024-03-06T08:16:27;19.20;;;14.63;;
5147;SDS011;2592;48.140;7.614;2024-03-06T08:18:55;13.67;;;11.00;;
5147;SDS011;2592;48.140;7.614;2024-03-06T08:21:21;11.20;;;8.50;;
5147;SDS011;2592;48.140;7.614;2024-03-06T08:23:49;11.23;;;8.70;;
5147;SDS011;2592;48.140;7.614;2024-03-06T08:26:16;13.23;;;9.07;;
5147;SDS011;2592;48.140;7.614;2024-03-06T08:28:42;9.53;;;7.90;;
5147;SDS011;2592;48.140;7.614;2024-03-06T08:31:08;8.90;;;6.90;;
5147;SDS011;2592;48.140;7.614;2024-03-06T08:33:35;9.40;;;7.13;;
5147;SDS011;2592;48.140;7.614;2024-03-06T08:36:02;12.37;;;7.93;;
5147;SDS011;2592;48.140;7.614;2024-03-06T08:38:29;10.73;;;7.97;;
5147;SDS011;2592;48.140;7.614;2024-03-06T08:40:56;5.00;;;3.53;;
5147;SDS011;2592;48.140;7.614;2024-03-06T08:43:23;3.43;;;2.90;;
5147;SDS011;2592;48.140;7.614;2024-03-06T08:45:49;7.07;;;3.60;;
5147;SDS011;2592;48.140;7.614;2024-03-06T08:48:16;4.57;;;3.57;;
5147;SDS011;2592;48.140;7.614;2024-03-06T08:50:43;4.50;;;3.20;;
5147;SDS011;2592;48.140;7.614;2024-03-06T08:53:10;6.17;;;3.17;;
5147;SDS011;2592;48.140;7.614;2024-03-06T08:55:38;8.67;;;5.57;;
5147;SDS011;2592;48.140;7.614;2024-03-06T08:58:06;9.03;;;4.40;;
5147;SDS011;2592;48.140;7.614;2024-03-06T09:00:34;6.23;;;4.60;;
5147;SDS011;2592;48.140;7.614;2024-03-06T09:03:00;6.67;;;4.13;;
5147;SDS011;2592;48.140;7.614;2024-03-06T09:05:27;3.50;;;3.20;;
5147;SDS011;2592;48.140;7.614;2024-03-06T09:07:53;4.90;;;3.00;;
5147;SDS011;2592;48.140;7.614;2024-03-06T09:10:22;5.80;;;3.40;;
5147;SDS011;2592;48.140;7.614;2024-03-06T09:12:49;4.30;;;2.97;;
5147;SDS011;2592;48.140;7.614;2024-03-06T09:15:17;3.93;;;2.67;;
5147;SDS011;2592;48.140;7.614;2024-03-06T09:17:44;5.60;;;2.67;;
5147;SDS011;2592;48.140;7.614;2024-03-06T09:20:11;4.00;;;2.97;;
5147;SDS011;2592;48.140;7.614;2024-03-06T09:22:38;4.07;;;2.67;;
5147;SDS011;2592;48.140;7.614;2024-03-06T09:25:05;5.23;;;3.33;;
5147;SDS011;2592;48.140;7.614;2024-03-06T09:27:31;4.53;;;3.23;;
5147;SDS011;2592;48.140;7.614;2024-03-06T09:29:58;5.80;;;3.57;;
5147;SDS011;2592;48.140;7.614;2024-03-06T09:32:26;3.53;;;2.70;;
5147;SDS011;2592;48.140;7.614;2024-03-06T09:34:52;5.83;;;3.50;;
5147;SDS011;2592;48.140;7.614;2024-03-06T09:37:19;6.07;;;3.93;;
5147;SDS011;2592;48.140;7.614;2024-03-06T09:39:45;6.20;;;2.93;;
5147;SDS011;2592;48.140;7.614;2024-03-06T09:42:12;11.83;;;3.33;;
5147;SDS011;2592;48.140;7.614;2024-03-06T09:44:38;6.10;;;2.90;;
5147;SDS011;2592;48.140;7.614;2024-03-06T09:47:05;5.50;;;3.80;;
5147;SDS011;2592;48.140;7.614;2024-03-06T09:49:34;5.03;;;3.37;;
5147;SDS011;2592;48.140;7.614;2024-03-06T09:52:00;4.70;;;3.30;;
5147;SDS011;2592;48.140;7.614;2024-03-06T09:54:28;4.00;;;3.10;;
5147;SDS011;2592;48.140;7.614;2024-03-06T09:56:55;7.93;;;5.63;;
5147;SDS011;2592;48.140;7.614;2024-03-06T09:59:24;6.90;;;4.10;;
5147;SDS011;2592;48.140;7.614;2024-03-06T10:01:57;5.53;;;3.53;;
5147;SDS011;2592;48.140;7.614;2024-03-06T10:04:27;5.80;;;4.23;;
5147;SDS011;2592;48.140;7.614;2024-03-06T10:06:56;7.10;;;3.70;;
5147;SDS011;2592;48.140;7.614;2024-03-06T10:09:23;4.47;;;3.40;;
5147;SDS011;2592;48.140;7.614;2024-03-06T10:11:49;5.30;;;3.00;;
5147;SDS011;2592;48.140;7.614;2024-03-06T10:14:18;7.23;;;3.80;;
5147;SDS011;2592;48.140;7.614;2024-03-06T10:16:53;4.50;;;3.10;;
5147;SDS011;2592;48.140;7.614;2024-03-06T10:19:21;7.70;;;4.03;;
5147;SDS011;2592;48.140;7.614;2024-03-06T10:21:48;8.93;;;3.20;;
5147;SDS011;2592;48.140;7.614;2024-03-06T10:24:18;7.40;;;3.60;;
5147;SDS011;2592;48.140;7.614;2024-03-06T10:26:45;8.73;;;3.57;;
5147;SDS011;2592;48.140;7.614;2024-03-06T10:29:13;3.23;;;2.90;;
5147;SDS011;2592;48.140;7.614;2024-03-06T10:31:39;4.13;;;3.07;;
5147;SDS011;2592;48.140;7.614;2024-03-06T10:34:07;10.73;;;3.27;;
5147;SDS011;2592;48.140;7.614;2024-03-06T10:36:33;7.23;;;3.40;;
5147;SDS011;2592;48.140;7.614;2024-03-06T10:39:02;4.90;;;3.10;;
5147;SDS011;2592;48.140;7.614;2024-03-06T10:41:30;3.83;;;2.57;;
5147;SDS011;2592;48.140;7.614;2024-03-06T10:43:59;6.17;;;2.60;;
5147;SDS011;2592;48.140;7.614;2024-03-06T10:46:26;5.50;;;2.40;;
5147;SDS011;2592;48.140;7.614;2024-03-06T10:48:53;9.80;;;3.30;;
5147;SDS011;2592;48.140;7.614;2024-03-06T10:51:23;7.77;;;2.93;;
5147;SDS011;2592;48.140;7.614;2024-03-06T10:53:51;5.77;;;2.87;;
5147;SDS011;2592;48.140;7.614;2024-03-06T10:56:17;4.03;;;2.30;;
5147;SDS011;2592;48.140;7.614;2024-03-06T10:58:46;4.80;;;2.67;;
5147;SDS011;2592;48.140;7.614;2024-03-06T11:01:13;4.40;;;2.83;;
5147;SDS011;2592;48.140;7.614;2024-03-06T11:03:40;4.03;;;2.57;;
5147;SDS011;2592;48.140;7.614;2024-03-06T11:06:06;5.07;;;2.73;;
5147;SDS011;2592;48.140;7.614;2024-03-06T11:08:33;5.33;;;3.90;;
5147;SDS011;2592;48.140;7.614;2024-03-06T11:13:41;9.60;;;3.67;;
5147;SDS011;2592;48.140;7.614;2024-03-06T11:16:09;11.17;;;4.10;;
5147;SDS011;2592;48.140;7.614;2024-03-06T11:18:42;13.53;;;7.20;;
5147;SDS011;2592;48.140;7.614;2024-03-06T11:24:13;7.93;;;4.83;;
5147;SDS011;2592;48.140;7.614;2024-03-06T11:26:41;6.77;;;4.03;;
5147;SDS011;2592;48.140;7.614;2024-03-06T11:29:09;6.03;;;3.20;;
5147;SDS011;2592;48.140;7.614;2024-03-06T11:31:36;4.20;;;2.80;;
5147;SDS011;2592;48.140;7.614;2024-03-06T11:34:03;3.17;;;2.20;;
5147;SDS011;2592;48.140;7.614;2024-03-06T11:36:30;10.83;;;2.93;;
5147;SDS011;2592;48.140;7.614;2024-03-06T11:38:57;6.13;;;4.23;;
5147;SDS011;2592;48.140;7.614;2024-03-06T11:41:25;12.93;;;6.23;;
5147;SDS011;2592;48.140;7.614;2024-03-06T11:43:52;8.60;;;5.67;;
5147;SDS011;2592;48.140;7.614;2024-03-06T11:46:19;8.67;;;5.40;;
5147;SDS011;2592;48.140;7.614;2024-03-06T11:48:52;5.20;;;3.60;;
5147;SDS011;2592;48.140;7.614;2024-03-06T11:51:19;6.27;;;4.23;;
5147;SDS011;2592;48.140;7.614;2024-03-06T11:53:49;7.30;;;3.50;;
5147;SDS011;2592;48.140;7.614;2024-03-06T11:56:16;14.20;;;4.07;;
5147;SDS011;2592;48.140;7.614;2024-03-06T11:58:43;9.57;;;6.17;;
5147;SDS011;2592;48.140;7.614;2024-03-06T12:01:09;12.73;;;7.90;;
5147;SDS011;2592;48.140;7.614;2024-03-06T12:03:35;23.33;;;13.83;;
5147;SDS011;2592;48.140;7.614;2024-03-06T12:06:04;10.70;;;5.80;;
5147;SDS011;2592;48.140;7.614;2024-03-06T12:08:30;10.17;;;6.27;;
5147;SDS011;2592;48.140;7.614;2024-03-06T12:10:56;16.90;;;9.33;;
5147;SDS011;2592;48.140;7.614;2024-03-06T12:13:24;10.50;;;5.80;;
5147;SDS011;2592;48.140;7.614;2024-03-06T12:15:50;7.53;;;4.70;;
5147;SDS011;2592;48.140;7.614;2024-03-06T12:18:18;6.37;;;2.70;;
5147;SDS011;2592;48.140;7.614;2024-03-06T12:20:45;7.30;;;4.87;;
5147;SDS011;2592;48.140;7.614;2024-03-06T12:23:20;7.10;;;4.27;;
5147;SDS011;2592;48.140;7.614;2024-03-06T12:25:51;11.10;;;5.23;;
5147;SDS011;2592;48.140;7.614;2024-03-06T12:28:23;6.40;;;3.67;;
5147;SDS011;2592;48.140;7.614;2024-03-06T12:30:50;6.90;;;2.67;;
5147;SDS011;2592;48.140;7.614;2024-03-06T12:33:18;5.53;;;3.77;;
5147;SDS011;2592;48.140;7.614;2024-03-06T12:35:45;7.00;;;3.83;;
5147;SDS011;2592;48.140;7.614;2024-03-06T12:38:13;8.13;;;3.70;;
5147;SDS011;2592;48.140;7.614;2024-03-06T12:40:41;4.10;;;2.33;;
5147;SDS011;2592;48.140;7.614;2024-03-06T12:43:10;6.40;;;3.53;;
5147;SDS011;2592;48.140;7.614;2024-03-06T12:45:37;10.57;;;3.30;;
5147;SDS011;2592;48.140;7.614;2024-03-06T12:48:04;12.37;;;6.00;;
5147;SDS011;2592;48.140;7.614;2024-03-06T12:50:31;8.97;;;4.50;;
5147;SDS011;2592;48.140;7.614;2024-03-06T12:52:58;8.23;;;4.77;;
5147;SDS011;2592;48.140;7.614;2024-03-06T12:55:24;8.00;;;4.00;;
5147;SDS011;2592;48.140;7.614;2024-03-06T12:57:52;5.10;;;2.70;;
5147;SDS011;2592;48.140;7.614;2024-03-06T13:00:19;4.83;;;2.87;;
5147;SDS011;2592;48.140;7.614;2024-03-06T13:02:45;6.83;;;2.73;;
5147;SDS011;2592;48.140;7.614;2024-03-06T13:05:12;5.73;;;3.03;;
5147;SDS011;2592;48.140;7.614;2024-03-06T13:07:39;4.00;;;2.87;;
5147;SDS011;2592;48.140;7.614;2024-03-06T13:10:07;7.23;;;3.10;;
5147;SDS011;2592;48.140;7.614;2024-03-06T13:12:35;7.27;;;3.10;;
5147;SDS011;2592;48.140;7.614;2024-03-06T13:15:03;3.50;;;2.03;;
5147;SDS011;2592;48.140;7.614;2024-03-06T13:17:32;3.23;;;1.80;;
5147;SDS011;2592;48.140;7.614;2024-03-06T13:19:58;5.07;;;2.63;;
5147;SDS011;2592;48.140;7.614;2024-03-06T13:22:25;10.60;;;4.53;;
5147;SDS011;2592;48.140;7.614;2024-03-06T13:24:51;12.23;;;3.20;;
5147;SDS011;2592;48.140;7.614;2024-03-06T13:27:17;5.60;;;1.90;;
5147;SDS011;2592;48.140;7.614;2024-03-06T13:29:44;2.17;;;1.77;;
5147;SDS011;2592;48.140;7.614;2024-03-06T13:32:12;2.33;;;1.77;;
5147;SDS011;2592;48.140;7.614;2024-03-06T13:34:38;3.20;;;2.07;;
5147;SDS011;2592;48.140;7.614;2024-03-06T13:37:05;4.03;;;1.87;;
5147;SDS011;2592;48.140;7.614;2024-03-06T13:39:35;4.83;;;1.70;;
5147;SDS011;2592;48.140;7.614;2024-03-06T13:42:01;3.97;;;2.30;;
5147;SDS011;2592;48.140;7.614;2024-03-06T13:44:28;3.63;;;2.30;;
5147;SDS011;2592;48.140;7.614;2024-03-06T13:46:54;4.97;;;2.30;;
5147;SDS011;2592;48.140;7.614;2024-03-06T13:49:35;2.80;;;2.03;;
5147;SDS011;2592;48.140;7.614;2024-03-06T13:52:02;2.93;;;1.87;;
5147;SDS011;2592;48.140;7.614;2024-03-06T13:54:30;1.77;;;1.50;;
5147;SDS011;2592;48.140;7.614;2024-03-06T13:56:56;3.93;;;1.80;;
5147;SDS011;2592;48.140;7.614;2024-03-06T13:59:26;6.20;;;2.30;;
5147;SDS011;2592;48.140;7.614;2024-03-06T14:01:53;2.47;;;1.50;;
5147;SDS011;2592;48.140;7.614;2024-03-06T14:04:20;5.00;;;1.60;;
5147;SDS011;2592;48.140;7.614;2024-03-06T14:06:49;5.37;;;1.50;;
5147;SDS011;2592;48.140;7.614;2024-03-06T14:09:15;7.27;;;2.27;;
5147;SDS011;2592;48.140;7.614;2024-03-06T14:11:41;5.70;;;1.87;;
5147;SDS011;2592;48.140;7.614;2024-03-06T14:14:08;7.90;;;1.90;;
5147;SDS011;2592;48.140;7.614;2024-03-06T14:16:35;4.00;;;2.53;;
5147;SDS011;2592;48.140;7.614;2024-03-06T14:19:01;7.30;;;3.40;;
5147;SDS011;2592;48.140;7.614;2024-03-06T14:21:29;5.40;;;2.53;;
5147;SDS011;2592;48.140;7.614;2024-03-06T14:23:57;4.27;;;2.03;;
5147;SDS011;2592;48.140;7.614;2024-03-06T14:26:24;4.57;;;2.60;;
5147;SDS011;2592;48.140;7.614;2024-03-06T14:28:50;6.37;;;2.70;;
5147;SDS011;2592;48.140;7.614;2024-03-06T14:31:16;6.30;;;3.20;;
5147;SDS011;2592;48.140;7.614;2024-03-06T14:33:43;11.60;;;3.60;;
5147;SDS011;2592;48.140;7.614;2024-03-06T14:36:11;16.27;;;4.20;;
5147;SDS011;2592;48.140;7.614;2024-03-06T14:38:38;7.13;;;3.37;;
5147;SDS011;2592;48.140;7.614;2024-03-06T14:41:05;7.10;;;3.20;;
5147;SDS011;2592;48.140;7.614;2024-03-06T14:43:34;5.63;;;3.57;;
5147;SDS011;2592;48.140;7.614;2024-03-06T14:46:03;4.97;;;3.70;;
5147;SDS011;2592;48.140;7.614;2024-03-06T14:48:30;6.30;;;3.10;;
5147;SDS011;2592;48.140;7.614;2024-03-06T14:50:56;4.87;;;3.10;;
5147;SDS011;2592;48.140;7.614;2024-03-06T14:53:23;4.03;;;2.70;;
5147;SDS011;2592;48.140;7.614;2024-03-06T14:55:49;2.83;;;2.30;;
5147;SDS011;2592;48.140;7.614;2024-03-06T14:58:17;4.00;;;2.60;;
5147;SDS011;2592;48.140;7.614;2024-03-06T15:00:43;6.83;;;2.90;;
5147;SDS011;2592;48.140;7.614;2024-03-06T15:03:10;4.30;;;2.23;;
5147;SDS011;2592;48.140;7.614;2024-03-06T15:05:36;2.57;;;2.27;;
5147;SDS011;2592;48.140;7.614;2024-03-06T15:08:03;2.63;;;2.30;;
5147;SDS011;2592;48.140;7.614;2024-03-06T15:10:30;5.63;;;3.20;;
5147;SDS011;2592;48.140;7.614;2024-03-06T15:12:57;4.10;;;2.47;;
5147;SDS011;2592;48.140;7.614;2024-03-06T15:15:24;3.00;;;2.07;;
5147;SDS011;2592;48.140;7.614;2024-03-06T15:17:51;3.10;;;1.60;;
5147;SDS011;2592;48.140;7.614;2024-03-06T15:20:17;5.80;;;2.93;;